createdAt,value
2023-04-10T00:00:27.791Z,8.4487
2023-04-10T00:01:30.122Z,8.3394
2023-04-10T00:02:32.536Z,8.3967
2023-04-10T00:03:34.883Z,8.4175
2023-04-10T00:04:37.249Z,8.4027
2023-04-10T00:05:39.470Z,8.4180
2023-04-10T00:06:41.791Z,8.2743
2023-04-10T00:07:44.130Z,8.1710
2023-04-10T00:08:46.509Z,8.3174
2023-04-10T00:09:48.839Z,8.3575
2023-04-10T00:10:51.156Z,8.2030
2023-04-10T00:11:53.467Z,8.1706
2023-04-10T00:12:55.795Z,8.2825
2023-04-10T00:13:58.135Z,8.3277
2023-04-10T00:15:00.525Z,8.1580
2023-04-10T00:16:02.875Z,8.1880
2023-04-10T00:17:05.164Z,8.2736
2023-04-10T00:18:07.549Z,8.4023
2023-04-10T00:19:09.848Z,8.5284
2023-04-10T00:20:12.207Z,8.5274
2023-04-10T00:21:14.570Z,8.5571
2023-04-10T00:22:16.829Z,8.5818
2023-04-10T00:23:19.253Z,8.3984
2023-04-10T00:24:21.503Z,8.4405
2023-04-10T00:25:23.888Z,8.4565
2023-04-10T00:26:26.210Z,8.4544
2023-04-10T00:27:28.543Z,8.5274
2023-04-10T00:28:30.884Z,8.5900
2023-04-10T00:29:33.183Z,8.5910
2023-04-10T00:30:35.562Z,8.5810
2023-04-10T00:31:37.874Z,8.5296
2023-04-10T00:32:40.339Z,8.3965
2023-04-10T00:33:42.669Z,8.1350
2023-04-10T00:34:45.033Z,8.2068
2023-04-10T00:35:47.300Z,8.2747
2023-04-10T00:36:49.698Z,8.4004
2023-04-10T00:37:51.964Z,8.2727
2023-04-10T00:38:54.374Z,8.1780
2023-04-10T00:39:56.651Z,8.1860
2023-04-10T00:40:59.001Z,8.2266
2023-04-10T00:42:01.313Z,8.2967
2023-04-10T00:43:03.697Z,8.0800
2023-04-10T00:44:06.050Z,8.0258
2023-04-10T00:45:08.363Z,8.1472
2023-04-10T00:46:10.707Z,8.1250
2023-04-10T00:47:13.041Z,8.2001
2023-04-10T00:48:15.386Z,8.3355
2023-04-10T00:49:17.662Z,8.3772
2023-04-10T00:50:20.719Z,8.3141
2023-04-10T00:51:22.402Z,8.3056
2023-04-10T00:52:24.716Z,8.3435
2023-04-10T00:53:27.094Z,8.2429
2023-04-10T00:54:29.392Z,8.2291
2023-04-10T00:55:31.711Z,8.0964
2023-04-10T00:56:34.024Z,8.0935
2023-04-10T00:57:36.378Z,8.2254
2023-04-10T00:58:38.712Z,8.2591
2023-04-10T00:59:41.058Z,8.2486
2023-04-10T01:00:43.400Z,8.2505
2023-04-10T01:01:45.840Z,8.2657
2023-04-10T01:02:48.228Z,8.2255
2023-04-10T01:03:50.439Z,8.2630
2023-04-10T01:04:53.211Z,8.2433
2023-04-10T01:05:55.040Z,8.2253
2023-04-10T01:06:57.412Z,8.1825
2023-04-10T01:07:59.720Z,8.0822
2023-04-10T01:09:02.139Z,7.9637
2023-04-10T01:10:04.393Z,7.9965
2023-04-10T01:11:06.778Z,8.0307
2023-04-10T01:12:09.055Z,8.0149
2023-04-10T01:13:11.380Z,8.0510
2023-04-10T01:14:13.805Z,8.0683
2023-04-10T01:15:16.093Z,8.0738
2023-04-10T01:16:18.444Z,8.0516
2023-04-10T01:17:20.753Z,8.0303
2023-04-10T01:18:23.105Z,7.9900
2023-04-10T01:19:25.445Z,7.9621
2023-04-10T01:20:27.806Z,7.9204
2023-04-10T01:21:30.103Z,7.8388
2023-04-10T01:22:32.439Z,7.7727
2023-04-10T01:23:34.808Z,7.7458
2023-04-10T01:24:37.069Z,7.5967
2023-04-10T01:25:39.454Z,7.6449
2023-04-10T01:26:41.792Z,7.7228
2023-04-10T01:27:44.142Z,7.8037
2023-04-10T01:28:46.443Z,7.8588
2023-04-10T01:29:49.198Z,7.7526
2023-04-10T01:30:51.197Z,7.6151
2023-04-10T01:31:53.496Z,7.7583
2023-04-10T01:32:55.845Z,7.8736
2023-04-10T01:33:58.218Z,7.8604
2023-04-10T01:35:00.457Z,7.7967
2023-04-10T01:36:02.937Z,7.7604
2023-04-10T01:37:05.110Z,7.8401
2023-04-10T01:38:07.419Z,7.8253
2023-04-10T01:39:09.756Z,7.8479
2023-04-10T01:40:12.132Z,7.8996
2023-04-10T01:41:14.524Z,7.9783
2023-04-10T01:42:16.785Z,7.9195
2023-04-10T01:43:19.147Z,7.9321
2023-04-10T01:44:21.473Z,7.8929
2023-04-10T01:45:23.809Z,7.8846
2023-04-10T01:46:26.194Z,7.8351
2023-04-10T01:47:28.498Z,7.9142
2023-04-10T01:48:30.838Z,7.8308
2023-04-10T01:49:33.120Z,7.8107
2023-04-10T01:50:35.469Z,7.8651
2023-04-10T01:51:37.845Z,7.8867
2023-04-10T01:52:40.172Z,7.9268
2023-04-10T01:53:42.449Z,7.9405
2023-04-10T01:54:44.813Z,7.9311
2023-04-10T01:55:47.122Z,7.8107
2023-04-10T01:56:49.480Z,7.8109
2023-04-10T01:57:51.853Z,7.8643
2023-04-10T01:58:54.145Z,7.7012
2023-04-10T01:59:57.189Z,7.4724
2023-04-10T02:00:58.927Z,7.6287
2023-04-10T02:02:01.319Z,7.5751
2023-04-10T02:03:03.630Z,7.5710
2023-04-10T02:04:05.922Z,7.7242
2023-04-10T02:05:08.157Z,7.7483
2023-04-10T02:06:10.458Z,7.5696
2023-04-10T02:07:12.834Z,7.4424
2023-04-10T02:08:15.143Z,7.6456
2023-04-10T02:09:17.460Z,7.7536
2023-04-10T02:10:19.783Z,7.7322
2023-04-10T02:11:22.153Z,7.7193
2023-04-10T02:12:24.477Z,7.7877
2023-04-10T02:13:26.844Z,7.6297
2023-04-10T02:14:29.146Z,7.6414
2023-04-10T02:15:31.453Z,7.6735
2023-04-10T02:16:33.875Z,7.6665
2023-04-10T02:17:36.201Z,7.6651
2023-04-10T02:18:38.478Z,7.7460
2023-04-10T02:19:40.835Z,7.7916
2023-04-10T02:20:43.125Z,7.8084
2023-04-10T02:21:45.492Z,7.8109
2023-04-10T02:22:47.780Z,7.8197
2023-04-10T02:23:50.182Z,7.6532
2023-04-10T02:24:52.448Z,7.6297
2023-04-10T02:25:54.807Z,7.5240
2023-04-10T02:26:57.203Z,7.1337
2023-04-10T02:28:00.184Z,7.1310
2023-04-10T02:29:01.844Z,7.2422
2023-04-10T02:30:04.159Z,7.5433
2023-04-10T02:31:06.497Z,7.7565
2023-04-10T02:32:08.868Z,7.8421
2023-04-10T02:33:11.167Z,7.8670
2023-04-10T02:34:13.610Z,7.8294
2023-04-10T02:35:15.857Z,7.8076
2023-04-10T02:36:18.152Z,7.7602
2023-04-10T02:37:20.474Z,7.6497
2023-04-10T02:38:22.813Z,7.5291
2023-04-10T02:39:25.220Z,7.3845
2023-04-10T02:40:27.501Z,7.1158
2023-04-10T02:41:29.864Z,7.3151
2023-04-10T02:42:32.152Z,7.4773
2023-04-10T02:43:34.488Z,7.5893
2023-04-10T02:44:36.785Z,7.7201
2023-04-10T02:45:39.136Z,7.7756
2023-04-10T02:46:41.466Z,7.7676
2023-04-10T02:47:43.911Z,7.6464
2023-04-10T02:48:46.159Z,7.3292
2023-04-10T02:49:48.504Z,7.2076
2023-04-10T02:50:51.673Z,7.4381
2023-04-10T02:51:53.131Z,7.6294
2023-04-10T02:52:55.481Z,7.6088
2023-04-10T02:53:57.805Z,7.6698
2023-04-10T02:55:00.131Z,7.7415
2023-04-10T02:56:02.573Z,7.7158
2023-04-10T02:57:04.809Z,7.5039
2023-04-10T02:58:07.135Z,7.5083
2023-04-10T02:59:09.430Z,7.3911
2023-04-10T03:00:11.794Z,7.4744
2023-04-10T03:01:14.143Z,7.6186
2023-04-10T03:02:16.510Z,7.6655
2023-04-10T03:03:18.900Z,7.6470
2023-04-10T03:04:21.257Z,7.6472
2023-04-10T03:05:23.449Z,7.6117
2023-04-10T03:06:25.817Z,7.4621
2023-04-10T03:07:28.111Z,7.5416
2023-04-10T03:08:30.466Z,7.5921
2023-04-10T03:09:32.794Z,7.5915
2023-04-10T03:10:35.106Z,7.5967
2023-04-10T03:11:37.466Z,7.5712
2023-04-10T03:12:39.792Z,7.4270
2023-04-10T03:13:42.111Z,7.4473
2023-04-10T03:14:44.541Z,7.3724
2023-04-10T03:15:46.808Z,7.3660
2023-04-10T03:16:49.110Z,7.2918
2023-04-10T03:17:51.457Z,7.1891
2023-04-10T03:18:53.835Z,7.3017
2023-04-10T03:19:56.123Z,7.2982
2023-04-10T03:20:58.454Z,7.1199
2023-04-10T03:22:00.793Z,6.9618
2023-04-10T03:23:03.147Z,7.0677
2023-04-10T03:24:05.486Z,7.1331
2023-04-10T03:25:07.791Z,7.2590
2023-04-10T03:26:10.159Z,7.3418
2023-04-10T03:27:12.479Z,7.2851
2023-04-10T03:28:14.820Z,6.9858
2023-04-10T03:29:17.655Z,6.9077
2023-04-10T03:30:19.501Z,7.1209
2023-04-10T03:31:21.886Z,7.2594
2023-04-10T03:32:24.182Z,7.3210
2023-04-10T03:33:26.499Z,7.2093
2023-04-10T03:34:28.832Z,7.0382
2023-04-10T03:35:31.242Z,7.0154
2023-04-10T03:36:33.502Z,7.1788
2023-04-10T03:37:35.871Z,7.2688
2023-04-10T03:38:38.171Z,7.3514
2023-04-10T03:39:40.525Z,7.3650
2023-04-10T03:40:44.158Z,7.3545
2023-04-10T03:41:45.250Z,7.2544
2023-04-10T03:42:47.514Z,7.1039
2023-04-10T03:43:49.856Z,7.2308
2023-04-10T03:44:52.250Z,7.1898
2023-04-10T03:45:54.530Z,7.1407
2023-04-10T03:46:56.914Z,7.2432
2023-04-10T03:48:00.281Z,7.2255
2023-04-10T03:49:01.568Z,7.2553
2023-04-10T03:50:03.910Z,7.2614
2023-04-10T03:51:06.225Z,7.2403
2023-04-10T03:52:08.557Z,7.1694
2023-04-10T03:53:10.956Z,7.0548
2023-04-10T03:54:13.247Z,7.0223
2023-04-10T03:55:15.569Z,6.9934
2023-04-10T03:56:17.924Z,6.9509
2023-04-10T03:57:20.247Z,7.1244
2023-04-10T03:58:22.614Z,7.1398
2023-04-10T03:59:37.357Z,7.0260
2023-04-10T04:00:27.293Z,7.0306
2023-04-10T04:01:29.617Z,7.0098
2023-04-10T04:02:32.055Z,6.9802
2023-04-10T04:03:34.456Z,6.6783
2023-04-10T04:04:36.831Z,6.6883
2023-04-10T04:05:38.955Z,6.8690
2023-04-10T04:06:41.270Z,6.9566
2023-04-10T04:07:43.626Z,6.9408
2023-04-10T04:08:45.960Z,6.9342
2023-04-10T04:09:48.288Z,6.8831
2023-04-10T04:10:50.618Z,6.8782
2023-04-10T04:11:52.940Z,6.8365
2023-04-10T04:12:55.283Z,6.9328
2023-04-10T04:13:57.658Z,7.1214
2023-04-10T04:14:59.950Z,7.2475
2023-04-10T04:16:02.290Z,7.1889
2023-04-10T04:17:04.736Z,6.9681
2023-04-10T04:18:06.963Z,7.1859
2023-04-10T04:19:09.750Z,7.2832
2023-04-10T04:20:11.638Z,7.2293
2023-04-10T04:21:13.952Z,7.1920
2023-04-10T04:22:16.321Z,7.0324
2023-04-10T04:23:18.626Z,6.8352
2023-04-10T04:24:20.991Z,6.5123
2023-04-10T04:25:23.322Z,6.4289
2023-04-10T04:26:25.695Z,6.8751
2023-04-10T04:27:27.998Z,7.1908
2023-04-10T04:28:30.550Z,7.3257
2023-04-10T04:29:32.666Z,7.3216
2023-04-10T04:30:34.989Z,7.2647
2023-04-10T04:31:58.548Z,7.2857
2023-04-10T04:32:40.169Z,7.3520
2023-04-10T04:33:42.087Z,7.3486
2023-04-10T04:34:44.345Z,7.2688
2023-04-10T04:35:46.730Z,7.1850
2023-04-10T04:36:49.088Z,7.0477
2023-04-10T04:37:51.386Z,6.9274
2023-04-10T04:38:53.756Z,6.7654
2023-04-10T04:39:56.161Z,7.0150
2023-04-10T04:40:58.469Z,7.1049
2023-04-10T04:42:00.828Z,7.1546
2023-04-10T04:43:03.211Z,7.2095
2023-04-10T04:44:05.501Z,7.1191
2023-04-10T04:45:07.826Z,7.1318
2023-04-10T04:46:10.183Z,7.2699
2023-04-10T04:47:12.520Z,7.3274
2023-04-10T04:48:14.852Z,7.3255
2023-04-10T04:49:17.156Z,7.3335
2023-04-10T04:50:19.501Z,7.2855
2023-04-10T04:51:21.859Z,7.2360
2023-04-10T04:52:24.181Z,7.2372
2023-04-10T04:53:26.506Z,7.2119
2023-04-10T04:54:28.847Z,7.1214
2023-04-10T04:55:31.192Z,6.7775
2023-04-10T04:56:33.520Z,6.9114
2023-04-10T04:57:35.883Z,7.0238
2023-04-10T04:58:38.189Z,7.0544
2023-04-10T04:59:40.525Z,7.1216
2023-04-10T05:00:42.837Z,7.1283
2023-04-10T05:01:45.277Z,7.0959
2023-04-10T05:02:47.636Z,6.9057
2023-04-10T05:03:49.991Z,6.9166
2023-04-10T05:04:52.203Z,6.9765
2023-04-10T05:05:54.549Z,6.9120
2023-04-10T05:06:56.888Z,6.9350
2023-04-10T05:07:59.255Z,7.0571
2023-04-10T05:09:01.575Z,7.0823
2023-04-10T05:10:03.922Z,7.0369
2023-04-10T05:11:06.249Z,6.9593
2023-04-10T05:12:08.590Z,6.9907
2023-04-10T05:13:10.893Z,7.0655
2023-04-10T05:14:13.211Z,7.1425
2023-04-10T05:15:15.593Z,7.1735
2023-04-10T05:16:18.007Z,7.1665
2023-04-10T05:17:20.261Z,7.0330
2023-04-10T05:18:22.606Z,6.9683
2023-04-10T05:19:24.932Z,6.9246
2023-04-10T05:20:27.229Z,6.9963
2023-04-10T05:21:29.569Z,6.8671
2023-04-10T05:22:31.929Z,6.6317
2023-04-10T05:23:34.265Z,6.7077
2023-04-10T05:24:36.592Z,6.8307
2023-04-10T05:25:38.967Z,7.0316
2023-04-10T05:26:41.257Z,7.1824
2023-04-10T05:27:43.609Z,7.1450
2023-04-10T05:28:45.941Z,7.1602
2023-04-10T05:29:48.267Z,7.1366
2023-04-10T05:30:50.698Z,6.9753
2023-04-10T05:31:53.383Z,7.0330
2023-04-10T05:32:55.323Z,7.1058
2023-04-10T05:33:57.614Z,6.9796
2023-04-10T05:34:59.957Z,6.9182
2023-04-10T05:36:02.338Z,6.8757
2023-04-10T05:37:04.620Z,7.1906
2023-04-10T05:38:07.041Z,7.3752
2023-04-10T05:39:09.291Z,7.3882
2023-04-10T05:40:11.588Z,7.4767
2023-04-10T05:41:13.949Z,7.5435
2023-04-10T05:42:16.252Z,7.4500
2023-04-10T05:43:18.624Z,7.5350
2023-04-10T05:44:20.991Z,7.6057
2023-04-10T05:45:23.268Z,7.6437
2023-04-10T05:46:25.625Z,7.5866
2023-04-10T05:47:27.975Z,7.5386
2023-04-10T05:48:30.257Z,7.4087
2023-04-10T05:49:32.615Z,7.4634
2023-04-10T05:50:34.941Z,7.5843
2023-04-10T05:51:37.289Z,7.6511
2023-04-10T05:52:39.598Z,7.7328
2023-04-10T05:53:41.923Z,7.7609
2023-04-10T05:54:44.251Z,7.7688
2023-04-10T05:55:46.627Z,7.8319
2023-04-10T05:56:48.983Z,7.8448
2023-04-10T05:57:51.291Z,7.8518
2023-04-10T05:58:53.790Z,7.8538
2023-04-10T05:59:55.941Z,7.7980
2023-04-10T06:00:58.288Z,7.8399
2023-04-10T06:02:00.640Z,7.8824
2023-04-10T06:03:03.079Z,7.9496
2023-04-10T06:04:05.391Z,7.9885
2023-04-10T06:05:07.683Z,7.9796
2023-04-10T06:06:09.949Z,7.9617
2023-04-10T06:07:12.317Z,7.9530
2023-04-10T06:08:14.639Z,7.9465
2023-04-10T06:09:16.988Z,7.9461
2023-04-10T06:10:19.293Z,7.9732
2023-04-10T06:11:21.638Z,7.9471
2023-04-10T06:12:23.981Z,7.8368
2023-04-10T06:13:27.096Z,7.9247
2023-04-10T06:14:28.693Z,8.0533
2023-04-10T06:15:31.013Z,8.0067
2023-04-10T06:16:33.444Z,7.8261
2023-04-10T06:17:35.690Z,7.7515
2023-04-10T06:18:37.985Z,7.9808
2023-04-10T06:19:40.352Z,8.1656
2023-04-10T06:20:42.652Z,8.2114
2023-04-10T06:21:45.034Z,8.2864
2023-04-10T06:22:48.098Z,8.3555
2023-04-10T06:23:50.588Z,8.5032
2023-04-10T06:24:51.965Z,8.5569
2023-04-10T06:25:54.321Z,8.5461
2023-04-10T06:26:56.705Z,8.4481
2023-04-10T06:27:59.291Z,8.1962
2023-04-10T06:29:01.380Z,8.3833
2023-04-10T06:30:03.654Z,8.6145
2023-04-10T06:31:06.027Z,8.7266
2023-04-10T06:32:08.310Z,8.7447
2023-04-10T06:33:10.610Z,8.6325
2023-04-10T06:34:14.126Z,8.6436
2023-04-10T06:35:15.381Z,8.5954
2023-04-10T06:36:17.653Z,8.6229
2023-04-10T06:37:19.992Z,8.8355
2023-04-10T06:38:22.340Z,8.9712
2023-04-10T06:39:24.669Z,9.0493
2023-04-10T06:40:27.601Z,8.9926
2023-04-10T06:41:29.337Z,8.7856
2023-04-10T06:42:31.698Z,8.7272
2023-04-10T06:43:34.010Z,8.8942
2023-04-10T06:44:36.393Z,9.0822
2023-04-10T06:45:38.697Z,9.1573
2023-04-10T06:46:41.059Z,9.2227
2023-04-10T06:47:43.512Z,9.3063
2023-04-10T06:48:45.734Z,9.3542
2023-04-10T06:49:48.591Z,9.2560
2023-04-10T06:50:50.322Z,9.0484
2023-04-10T06:51:52.634Z,9.1074
2023-04-10T06:52:54.996Z,9.1705
2023-04-10T06:53:57.304Z,9.3211
2023-04-10T06:54:59.809Z,9.1087
2023-04-10T06:56:03.640Z,8.5793
2023-04-10T06:57:04.359Z,8.3007
2023-04-10T06:58:06.705Z,8.3367
2023-04-10T06:59:09.003Z,8.9158
2023-04-10T07:00:11.341Z,9.2432
2023-04-10T07:01:13.680Z,9.3660
2023-04-10T07:02:16.092Z,9.3071
2023-04-10T07:03:18.451Z,9.3558
2023-04-10T07:04:20.660Z,9.2393
2023-04-10T07:05:23.007Z,8.6870
2023-04-10T07:06:25.365Z,8.4832
2023-04-10T07:07:27.698Z,8.8907
2023-04-10T07:08:30.058Z,8.9049
2023-04-10T07:09:32.369Z,9.1539
2023-04-10T07:10:34.723Z,9.3560
2023-04-10T07:11:37.018Z,9.5844
2023-04-10T07:12:39.359Z,9.5215
2023-04-10T07:13:41.686Z,9.5156
2023-04-10T07:14:44.042Z,9.6053
2023-04-10T07:15:46.365Z,9.5680
2023-04-10T07:16:48.744Z,8.9413
2023-04-10T07:17:51.067Z,9.0920
2023-04-10T07:18:53.846Z,9.4291
2023-04-10T07:19:55.719Z,9.4932
2023-04-10T07:20:58.095Z,9.6396
2023-04-10T07:22:00.376Z,9.8533
2023-04-10T07:23:02.723Z,9.7126
2023-04-10T07:24:05.055Z,9.8089
2023-04-10T07:25:07.388Z,10.0379
2023-04-10T07:26:09.710Z,10.1125
2023-04-10T07:27:12.086Z,9.9478
2023-04-10T07:28:14.380Z,10.0188
2023-04-10T07:29:16.702Z,9.9590
2023-04-10T07:30:19.121Z,9.9599
2023-04-10T07:31:21.481Z,10.0359
2023-04-10T07:32:24.087Z,10.0987
2023-04-10T07:33:26.094Z,10.3586
2023-04-10T07:34:28.396Z,10.1556
2023-04-10T07:35:30.735Z,10.1308
2023-04-10T07:36:33.072Z,10.1649
2023-04-10T07:37:35.458Z,9.6298
2023-04-10T07:38:37.754Z,9.6035
2023-04-10T07:39:40.075Z,9.7499
2023-04-10T07:40:42.415Z,10.1893
2023-04-10T07:41:44.747Z,10.4683
2023-04-10T07:42:47.117Z,10.5718
2023-04-10T07:43:49.424Z,10.5083
2023-04-10T07:44:51.820Z,9.9642
2023-04-10T07:45:54.114Z,9.4717
2023-04-10T07:46:56.453Z,9.3973
2023-04-10T07:47:58.819Z,9.6926
2023-04-10T07:49:01.109Z,9.4211
2023-04-10T07:50:03.461Z,9.3880
2023-04-10T07:51:05.765Z,10.0671
2023-04-10T07:52:08.158Z,10.4763
2023-04-10T07:53:10.465Z,10.5929
2023-04-10T07:54:12.791Z,10.5038
2023-04-10T07:55:15.160Z,10.2357
2023-04-10T07:56:17.541Z,10.5457
2023-04-10T07:57:20.017Z,10.5093
2023-04-10T07:58:22.140Z,10.6297
2023-04-10T07:59:24.443Z,10.9686
2023-04-10T08:00:26.812Z,10.9931
2023-04-10T08:01:29.151Z,10.9497
2023-04-10T08:02:31.641Z,11.1420
2023-04-10T08:03:34.671Z,11.4537
2023-04-10T08:04:36.410Z,11.6237
2023-04-10T08:05:38.511Z,11.5097
2023-04-10T08:06:40.848Z,11.4240
2023-04-10T08:07:43.125Z,11.5807
2023-04-10T08:08:45.494Z,11.9003
2023-04-10T08:09:47.786Z,12.2688
2023-04-10T08:10:50.127Z,12.5944
2023-04-10T08:11:52.495Z,12.7817
2023-04-10T08:12:54.804Z,12.9157
2023-04-10T08:13:57.152Z,13.0204
2023-04-10T08:14:59.540Z,13.1359
2023-04-10T08:16:01.828Z,13.0847
2023-04-10T08:17:04.303Z,13.0636
2023-04-10T08:18:06.504Z,13.1288
2023-04-10T08:19:08.821Z,12.6899
2023-04-10T08:20:11.183Z,13.0227
2023-04-10T08:21:13.505Z,13.3811
2023-04-10T08:22:15.869Z,13.5822
2023-04-10T08:23:20.856Z,13.9117
2023-04-10T08:24:20.523Z,14.0999
2023-04-10T08:25:22.954Z,14.1658
2023-04-10T08:26:25.230Z,13.3037
2023-04-10T08:27:27.545Z,13.5516
2023-04-10T08:28:29.930Z,13.7190
2023-04-10T08:29:32.259Z,13.8008
2023-04-10T08:30:34.590Z,14.2025
2023-04-10T08:31:36.885Z,13.9826
2023-04-10T08:32:39.297Z,13.9242
2023-04-10T08:33:41.969Z,14.3034
2023-04-10T08:34:43.981Z,14.6667
2023-04-10T08:35:46.356Z,14.7828
2023-04-10T08:36:48.606Z,14.4959
2023-04-10T08:38:07.809Z,14.6982
2023-04-10T08:38:53.283Z,14.7812
2023-04-10T08:39:55.594Z,14.5542
2023-04-10T08:40:57.969Z,14.9461
2023-04-10T08:42:00.294Z,15.1378
2023-04-10T08:43:02.663Z,15.4165
2023-04-10T08:44:05.088Z,15.6794
2023-04-10T08:45:07.395Z,15.8507
2023-04-10T08:46:09.708Z,15.9692
2023-04-10T08:47:12.104Z,15.9695
2023-04-10T08:48:14.396Z,15.5695
2023-04-10T08:49:16.757Z,15.5225
2023-04-10T08:50:19.055Z,16.0261
2023-04-10T08:51:26.172Z,15.9152
2023-04-10T08:52:23.741Z,16.3025
2023-04-10T08:53:26.080Z,16.5086
2023-04-10T08:54:28.444Z,16.7896
2023-04-10T08:55:30.787Z,17.0975
2023-04-10T08:56:33.124Z,17.1754
2023-04-10T08:57:35.484Z,17.2208
2023-04-10T08:58:37.828Z,17.1754
2023-04-10T08:59:40.171Z,17.1068
2023-04-10T09:00:42.490Z,17.0154
2023-04-10T09:01:44.811Z,16.8683
2023-04-10T09:02:47.270Z,17.1803
2023-04-10T09:03:49.621Z,17.4040
2023-04-10T09:04:51.949Z,17.6817
2023-04-10T09:05:54.171Z,17.6527
2023-04-10T09:06:56.506Z,17.7012
2023-04-10T09:07:58.882Z,17.4447
2023-04-10T09:10:03.569Z,18.2277
2023-04-10T09:11:05.886Z,17.8884
2023-04-10T09:12:08.274Z,17.7010
2023-04-10T09:13:10.604Z,18.1379
2023-04-10T09:14:12.938Z,18.0491
2023-04-10T09:15:15.265Z,17.7271
2023-04-10T09:16:17.705Z,17.5320
2023-04-10T09:17:20.074Z,17.2493
2023-04-10T09:18:22.279Z,16.6317
2023-04-10T09:19:24.674Z,17.3874
2023-04-10T09:20:27.015Z,17.9601
2023-04-10T09:21:29.360Z,18.3144
2023-04-10T09:22:31.688Z,18.4857
2023-04-10T09:23:34.031Z,18.7065
2023-04-10T09:24:36.369Z,18.8797
2023-04-10T09:25:38.722Z,18.5440
2023-04-10T09:26:41.058Z,18.7466
2023-04-10T09:27:43.456Z,18.8039
2023-04-10T09:28:45.729Z,18.8875
2023-04-10T09:29:48.088Z,18.4600
2023-04-10T09:30:50.445Z,18.7079
2023-04-10T09:31:52.780Z,18.4824
2023-04-10T09:32:55.142Z,18.3809
2023-04-10T09:33:57.463Z,18.7876
2023-04-10T09:34:59.775Z,19.1802
2023-04-10T09:36:02.164Z,19.4985
2023-04-10T09:37:04.550Z,19.6308
2023-04-10T09:38:06.848Z,19.4735
2023-04-10T09:39:09.191Z,19.8315
2023-04-10T09:40:11.524Z,20.1090
2023-04-10T09:41:14.009Z,20.2035
2023-04-10T09:42:16.203Z,20.3553
2023-04-10T09:43:18.585Z,19.7761
2023-04-10T09:44:20.906Z,19.1654
2023-04-10T09:45:23.245Z,18.8332
2023-04-10T09:46:25.705Z,19.1668
2023-04-10T09:47:27.966Z,19.7116
2023-04-10T09:48:30.325Z,19.3338
2023-04-10T09:49:32.671Z,19.5809
2023-04-10T09:50:37.133Z,20.1029
2023-04-10T09:51:37.338Z,20.2747
2023-04-10T09:52:39.722Z,20.4876
2023-04-10T09:53:42.017Z,20.7328
2023-04-10T09:54:44.444Z,20.4237
2023-04-10T09:55:46.749Z,19.8675
2023-04-10T09:56:49.165Z,19.9628
2023-04-10T09:57:51.449Z,19.9061
2023-04-10T09:58:54.038Z,19.7574
2023-04-10T09:59:56.137Z,19.5860
2023-04-10T10:00:58.437Z,19.1358
2023-04-10T10:02:00.877Z,18.6453
2023-04-10T10:03:03.276Z,18.8111
2023-04-10T10:04:05.466Z,18.8435
2023-04-10T10:05:07.895Z,18.3643
2023-04-10T10:06:10.155Z,18.2182
2023-04-10T10:07:12.521Z,18.6365
2023-04-10T10:08:14.845Z,18.6960
2023-04-10T10:09:17.194Z,17.4075
2023-04-10T10:10:19.536Z,17.6830
2023-04-10T10:11:21.895Z,17.6873
2023-04-10T10:12:24.245Z,17.7787
2023-04-10T10:13:26.580Z,18.0338
2023-04-10T10:14:28.919Z,17.7996
2023-04-10T10:15:31.342Z,17.2986
2023-04-10T10:16:33.637Z,17.3640
2023-04-10T10:17:35.981Z,17.6474
2023-04-10T10:18:38.286Z,17.7793
2023-04-10T10:19:40.650Z,17.3397
2023-04-10T10:20:42.972Z,16.6120
2023-04-10T10:21:45.323Z,16.6660
2023-04-10T10:22:47.682Z,17.0057
2023-04-10T10:23:50.016Z,17.0511
2023-04-10T10:24:52.383Z,17.0873
2023-04-10T10:25:54.715Z,16.7062
2023-04-10T10:26:57.056Z,16.8322
2023-04-10T10:27:59.401Z,16.3946
2023-04-10T10:29:01.751Z,16.7948
2023-04-10T10:30:11.942Z,17.0012
2023-04-10T10:31:06.463Z,17.3262
2023-04-10T10:32:08.793Z,17.2654
2023-04-10T10:33:11.129Z,17.0310
2023-04-10T10:34:13.474Z,16.8732
2023-04-10T10:35:15.838Z,16.6896
2023-04-10T10:36:18.197Z,16.5403
2023-04-10T10:37:20.516Z,16.6311
2023-04-10T10:38:22.832Z,16.6832
2023-04-10T10:39:25.173Z,16.5764
2023-04-10T10:40:27.532Z,16.7280
2023-04-10T10:41:29.864Z,16.7977
2023-04-10T10:42:32.213Z,16.2552
2023-04-10T10:43:34.554Z,15.8275
2023-04-10T10:44:36.874Z,15.6679
2023-04-10T10:45:39.261Z,15.5936
2023-04-10T10:46:41.567Z,16.0305
2023-04-10T10:47:43.935Z,16.0709
2023-04-10T10:48:46.250Z,16.2850
2023-04-10T10:49:48.583Z,16.7512
2023-04-10T10:50:51.093Z,17.1101
2023-04-10T10:51:53.270Z,17.2401
2023-04-10T10:52:55.605Z,17.2633
2023-04-10T10:53:57.954Z,16.9583
2023-04-10T10:55:00.316Z,16.2258
2023-04-10T10:56:02.726Z,15.9522
2023-04-10T10:57:04.962Z,16.4688
2023-04-10T10:58:07.310Z,16.7334
2023-04-10T10:59:09.645Z,17.0111
2023-04-10T11:00:11.997Z,17.2021
2023-04-10T11:01:14.361Z,17.5706
2023-04-10T11:02:16.821Z,17.5675
2023-04-10T11:03:19.305Z,17.5685
2023-04-10T11:04:21.371Z,16.9723
2023-04-10T11:05:23.716Z,16.8211
2023-04-10T11:06:26.063Z,16.4020
2023-04-10T11:07:28.401Z,16.6894
2023-04-10T11:08:30.752Z,17.0836
2023-04-10T11:09:33.088Z,17.3412
2023-04-10T11:10:35.451Z,17.0380
2023-04-10T11:11:37.776Z,17.0148
2023-04-10T11:12:40.121Z,16.9480
2023-04-10T11:13:42.531Z,17.1421
2023-04-10T11:14:44.823Z,16.9497
2023-04-10T11:15:47.153Z,17.0109
2023-04-10T11:16:49.596Z,17.1838
2023-04-10T11:17:52.316Z,17.3356
2023-04-10T11:19:06.363Z,17.3717
2023-04-10T11:19:56.533Z,17.4544
2023-04-10T11:20:58.885Z,17.6289
2023-04-10T11:22:01.212Z,17.5566
2023-04-10T11:23:03.557Z,17.2446
2023-04-10T11:24:05.920Z,16.9889
2023-04-10T11:25:08.259Z,16.8209
2023-04-10T11:26:10.583Z,17.0729
2023-04-10T11:27:12.939Z,17.2988
2023-04-10T11:28:15.269Z,16.9905
2023-04-10T11:29:17.663Z,16.8009
2023-04-10T11:30:19.961Z,16.7751
2023-04-10T11:31:22.601Z,16.9755
2023-04-10T11:32:24.668Z,17.3439
2023-04-10T11:33:26.999Z,17.2015
2023-04-10T11:34:29.337Z,17.0908
2023-04-10T11:35:31.951Z,17.1214
2023-04-10T11:36:34.043Z,17.1854
2023-04-10T11:37:36.378Z,17.4361
2023-04-10T11:38:38.710Z,17.1134
2023-04-10T11:39:41.059Z,17.0591
2023-04-10T11:40:43.403Z,16.9515
2023-04-10T11:41:45.762Z,16.9683
2023-04-10T11:42:48.099Z,17.2703
2023-04-10T11:43:50.437Z,17.3481
2023-04-10T11:44:52.781Z,17.1590
2023-04-10T11:45:55.171Z,17.1113
2023-04-10T11:46:57.488Z,17.0277
2023-04-10T11:47:59.843Z,17.2680
2023-04-10T11:49:02.198Z,17.5209
2023-04-10T11:50:04.506Z,17.5811
2023-04-10T11:51:06.832Z,17.4180
2023-04-10T11:52:09.242Z,17.2216
2023-04-10T11:53:11.528Z,17.1877
2023-04-10T11:54:13.864Z,17.6632
2023-04-10T11:55:16.218Z,17.8771
2023-04-10T11:56:18.557Z,17.7902
2023-04-10T11:57:20.921Z,17.8834
2023-04-10T11:58:23.264Z,18.0009
2023-04-10T11:59:25.598Z,18.1782
2023-04-10T12:00:27.944Z,18.0792
2023-04-10T12:01:30.293Z,18.1182
2023-04-10T12:02:32.740Z,18.0106
2023-04-10T12:03:35.153Z,17.5525
2023-04-10T12:04:37.789Z,17.5503
2023-04-10T12:05:39.660Z,17.7409
2023-04-10T12:06:42.005Z,17.7095
2023-04-10T12:07:44.362Z,17.5725
2023-04-10T12:08:46.692Z,17.4126
2023-04-10T12:09:49.039Z,17.7953
2023-04-10T12:10:51.379Z,18.0667
2023-04-10T12:11:53.727Z,17.8801
2023-04-10T12:12:56.080Z,17.6460
2023-04-10T12:13:58.412Z,17.5800
2023-04-10T12:15:00.748Z,17.5634
2023-04-10T12:16:03.138Z,17.7912
2023-04-10T12:17:05.425Z,17.9627
2023-04-10T12:18:07.792Z,17.9405
2023-04-10T12:19:10.109Z,17.5913
2023-04-10T12:20:12.484Z,17.2477
2023-04-10T12:21:14.793Z,17.2855
2023-04-10T12:22:17.149Z,17.3089
2023-04-10T12:23:19.496Z,17.7666
2023-04-10T12:24:21.831Z,17.9740
2023-04-10T12:25:24.171Z,17.8617
2023-04-10T12:26:26.513Z,17.7234
2023-04-10T12:27:28.986Z,17.6396
2023-04-10T12:28:31.214Z,17.4911
2023-04-10T12:29:33.538Z,17.7668
2023-04-10T12:30:35.873Z,17.9042
2023-04-10T12:31:38.323Z,18.0662
2023-04-10T12:32:40.590Z,18.1702
2023-04-10T12:33:42.904Z,17.9865
2023-04-10T12:34:45.249Z,17.8315
2023-04-10T12:35:47.598Z,18.0913
2023-04-10T12:36:49.932Z,18.0964
2023-04-10T12:37:52.309Z,18.3592
2023-04-10T12:38:54.826Z,17.9566
2023-04-10T12:39:56.963Z,18.1710
2023-04-10T12:40:59.304Z,18.3643
2023-04-10T12:42:01.649Z,18.1515
2023-04-10T12:43:04.026Z,17.9153
2023-04-10T12:44:06.336Z,18.1310
2023-04-10T12:45:08.676Z,17.8306
2023-04-10T12:46:11.155Z,17.6949
2023-04-10T12:47:13.362Z,17.8002
2023-04-10T12:48:15.768Z,17.8968
2023-04-10T12:49:18.169Z,17.6131